GCLPLEZL

Guest
Details From GCLP - Gran Canaria - Gando
To LEZL - Sevilla
Flight Number -
Tags Routegen Generated
Created
Modified
Stats Distance 745 nm / 1,379 km
Max Altitude 15,100 ft / 4,602 m
Waypoints 11
Social Downloads 2
Likes 0
Share VATSIM

Download

Looking for another format? Having issues loading an existing format? Contact us
Advertisement - Login to hide

Notes

Departing runway 2 GCLP. Arriving runway 8 LEZL.

Route

GCLP +28.01_-015.35 +28.06_-015.31 +29.76_-013.81 +31.44_-012.26 +33.10_-010.65 +34.74_-008.98 +37.36_-006.13 +37.40_-006.07 +37.42_-006.00 LEZL

ID Type Via Altitude Latitude Longitude Leg Dist Tot Dist Heading (true) Name
O GCLP APT - 0 ft / 0 m 27.94491˚ -15.38083˚ - 0 nm - -
+28.01_-015.35 LATLON - 310 ft / 94 m 28.01232˚ -15.35101˚ 4 nm 4 nm 21° / 21° -
+28.06_-015.31 LATLON - 990 ft / 302 m 28.05578˚ -15.30769˚ 3 nm 7 nm 41° / 41° -
+29.76_-013.81 LATLON - 15,100 ft / 4,602 m 29.75537˚ -13.80814˚ 128 nm 136 nm 37° / 38° -
+31.44_-012.26 LATLON - 15,100 ft / 4,602 m 31.43831˚ -12.25757˚ 128 nm 265 nm 38° / 39° -
+33.10_-010.65 LATLON - 15,100 ft / 4,602 m 33.10190˚ -10.65061˚ 128 nm 394 nm 39° / 40° -
+34.74_-008.98 LATLON - 15,100 ft / 4,602 m 34.74407˚ -8.98205˚ 128 nm 523 nm 40° / 41° -
+37.36_-006.13 LATLON - 2,010 ft / 613 m 37.36010˚ -6.12718˚ 209 nm 733 nm 41° / 42° -
+37.40_-006.07 LATLON - 990 ft / 302 m 37.39751˚ -6.07157˚ 3 nm 736 nm 50° / 50° -
+37.42_-006.00 LATLON - 310 ft / 94 m 37.41755˚ -6.00320˚ 3 nm 740 nm 70° / 70° -
O LEZL APT - 0 ft / 0 m 37.41788˚ -5.91208˚ 4 nm 744 nm 90° / 90° -

Altitude Profile

Advertisement - Login to hide

Weather


0- 5 10 15 20 25 30 35+ Temperature / ° C

Clouds and Precipitation
Forecast for 2017-12-15 06:00 UTC. Updated an hour ago

Ground ~20,000 ft ~40,000 ft Winds

GCLP

Details ICAO GCLP (LPA)
Name Gran Canaria
Region Canary Islands
Timezone Atlantic/Canary (UTC+0.0)
Stats Elevation 77 ft / 23 m (AMSL)
Location 27.931544° -15.385592°
Runways 2
Magnetic Variation 4.684° W

METAR

GCLP 150630Z 36012KT 9999 FEW030 18/12 Q1023 NOSIG

Decode

TAF

TAF GCLP 150200Z 1503/1603 01018KT 9999 FEW025 TX22/1514Z TN16/1506Z= TAF AMD NWWW 150237Z 1502/1524 13016KT 9999 FEW013 BKN040 BKN130 TEMPO 1502/1508 4500 SHRA BKN020 FEW030CB PROB30 TEMPO 1502/1506 1500 TSRA BKN015 SCT020CB BECMG 1507/1509 10006KT

Decode

Departure Runways

ID Width Length Bearing (true) Bearing (mag) Surface Threshold Offset Overrun Length
03L 148 ft / 45 m 10,203 ft / 3,110 m 21.33° 26.01° Asphalt 0 ft / 0 m 656 ft / 200 m
03R 148 ft / 45 m 10,200 ft / 3,109 m 21.32° 26.00° Asphalt 0 ft / 0 m 673 ft / 205 m
21L 148 ft / 45 m 10,200 ft / 3,109 m 201.33° 206.01° Asphalt 0 ft / 0 m 689 ft / 210 m
21R 148 ft / 45 m 10,203 ft / 3,110 m 201.33° 206.01° Asphalt 0 ft / 0 m 755 ft / 230 m

LEZL

Details ICAO LEZL (SVQ)
Name Sevilla
Region Spain
Timezone Europe/Madrid (UTC+1.0)
Stats Elevation 111 ft / 34 m (AMSL)
Location 37.417939° -5.893093°
Runways 1
Magnetic Variation 1.296° W

METAR

LEZL 150630Z 20005KT 170V230 9999 BKN016 14/13 Q1018 NOSIG

Decode

TAF

TAF LEZL 150200Z 1503/1603 22004KT 9999 BKN020 TX17/1515Z TN09/1507Z TEMPO 1503/1512 3000 BR BKN010 PROB40 TEMPO 1503/1509 0900 FG VV001 TEMPO 1516/1520 4000 RA BECMG 1519/1521 CAVOK

Decode

Destination Runways

ID Width Length Bearing (true) Bearing (mag) Surface Threshold Offset Overrun Length
09 148 ft / 45 m 11,008 ft / 3,355 m 89.75° 91.05° Asphalt 0 ft / 0 m 0 ft / 0 m
27 148 ft / 45 m 11,008 ft / 3,355 m 269.77° 271.07° Asphalt 0 ft / 0 m 0 ft / 0 m

Approach Navaids

Runway Type Ident Frequency Range Bearing (true) Bearing (mag) Slope Elevation
09 Localiser ISE 111.10 MHz 18 nm / 33 km 89.77° 91.07° - 111 ft / 34 m (AMSL)
09 Glidescope ISE 111.10 MHz 10 nm / 19 km 89.76° 91.05° 3.00° 111 ft / 34 m (AMSL)
09 DME ISE 111.10 MHz 18 nm / 33 km - - - 102 ft / 31 m (AMSL)
27 Localiser ISV 110.10 MHz 18 nm / 33 km 269.74° 271.04° - 111 ft / 34 m (AMSL)
27 Glidescope ISV 110.10 MHz 10 nm / 19 km 269.76° 271.05° 3.00° 22 ft / 7 m (AMSL)
27 DME ISV 110.10 MHz 18 nm / 33 km - - - 22 ft / 7 m (AMSL)

Popular Alternatives